sensor_id;sensor_type;location;lat;lon;timestamp;pressure;altitude;pressure_sealevel;temperature
53512;BMP280;39392;52.832;13.816;2023-11-21T00:02:12;100716.00;;;20.54
53512;BMP280;39392;52.832;13.816;2023-11-21T00:04:39;100712.22;;;20.55
53512;BMP280;39392;52.832;13.816;2023-11-21T00:07:06;100718.53;;;20.56
53512;BMP280;39392;52.832;13.816;2023-11-21T00:09:32;100718.53;;;20.56
53512;BMP280;39392;52.832;13.816;2023-11-21T00:11:59;100724.81;;;20.56
53512;BMP280;39392;52.832;13.816;2023-11-21T00:14:25;100728.19;;;20.58
53512;BMP280;39392;52.832;13.816;2023-11-21T00:16:52;100728.00;;;20.60
53512;BMP280;39392;52.832;13.816;2023-11-21T00:19:19;100725.47;;;20.58
53512;BMP280;39392;52.832;13.816;2023-11-21T00:21:45;100721.56;;;20.61
53512;BMP280;39392;52.832;13.816;2023-11-21T00:24:12;100731.41;;;20.62
53512;BMP280;39392;52.832;13.816;2023-11-21T00:26:40;100731.41;;;20.62
53512;BMP280;39392;52.832;13.816;2023-11-21T00:29:06;100734.59;;;20.66
53512;BMP280;39392;52.832;13.816;2023-11-21T00:31:36;100737.97;;;20.68
53512;BMP280;39392;52.832;13.816;2023-11-21T00:34:03;100740.69;;;20.68
53512;BMP280;39392;52.832;13.816;2023-11-21T00:36:32;100737.59;;;20.71
53512;BMP280;39392;52.832;13.816;2023-11-21T00:38:58;100734.69;;;20.72
53512;BMP280;39392;52.832;13.816;2023-11-21T00:41:25;100735.34;;;20.74
53512;BMP280;39392;52.832;13.816;2023-11-21T00:43:54;100740.59;;;20.76
53512;BMP280;39392;52.832;13.816;2023-11-21T00:46:21;100743.13;;;20.77
53512;BMP280;39392;52.832;13.816;2023-11-21T00:48:48;100746.53;;;20.79
53512;BMP280;39392;52.832;13.816;2023-11-21T00:51:14;100747.38;;;20.80
53512;BMP280;39392;52.832;13.816;2023-11-21T00:53:41;100749.25;;;20.79
53512;BMP280;39392;52.832;13.816;2023-11-21T00:56:07;100746.31;;;20.81
53512;BMP280;39392;52.832;13.816;2023-11-21T00:58:34;100742.38;;;20.83
53512;BMP280;39392;52.832;13.816;2023-11-21T01:01:01;100743.44;;;20.82
53512;BMP280;39392;52.832;13.816;2023-11-21T01:03:29;100749.44;;;20.78
53512;BMP280;39392;52.832;13.816;2023-11-21T01:05:56;100757.41;;;20.79
53512;BMP280;39392;52.832;13.816;2023-11-21T01:08:23;100753.84;;;20.79
53512;BMP280;39392;52.832;13.816;2023-11-21T01:10:50;100760.78;;;20.81
53512;BMP280;39392;52.832;13.816;2023-11-21T01:13:17;100767.09;;;20.82
53512;BMP280;39392;52.832;13.816;2023-11-21T01:15:44;100761.47;;;20.83
53512;BMP280;39392;52.832;13.816;2023-11-21T01:18:11;100776.28;;;20.81
53512;BMP280;39392;52.832;13.816;2023-11-21T01:20:38;100779.69;;;20.83
53512;BMP280;39392;52.832;13.816;2023-11-21T01:23:04;100777.81;;;20.83
53512;BMP280;39392;52.832;13.816;2023-11-21T01:25:31;100788.50;;;20.85
53512;BMP280;39392;52.832;13.816;2023-11-21T01:27:57;100787.66;;;20.84
53512;BMP280;39392;52.832;13.816;2023-11-21T01:30:24;100788.50;;;20.85
53512;BMP280;39392;52.832;13.816;2023-11-21T01:32:51;100792.94;;;20.86
53512;BMP280;39392;52.832;13.816;2023-11-21T01:35:18;100793.94;;;20.85
53512;BMP280;39392;52.832;13.816;2023-11-21T01:37:45;100796.66;;;20.85
53512;BMP280;39392;52.832;13.816;2023-11-21T01:40:12;100790.38;;;20.84
53512;BMP280;39392;52.832;13.816;2023-11-21T01:42:41;100781.16;;;20.85
53512;BMP280;39392;52.832;13.816;2023-11-21T01:45:10;100786.81;;;20.84
53512;BMP280;39392;52.832;13.816;2023-11-21T01:47:36;100786.63;;;20.85
53512;BMP280;39392;52.832;13.816;2023-11-21T01:50:04;100785.41;;;20.88
53512;BMP280;39392;52.832;13.816;2023-11-21T01:52:33;100796.78;;;20.92
53512;BMP280;39392;52.832;13.816;2023-11-21T01:55:01;100788.59;;;20.92
53512;BMP280;39392;52.832;13.816;2023-11-21T01:57:28;100794.06;;;20.92
53512;BMP280;39392;52.832;13.816;2023-11-21T01:59:56;100796.78;;;20.92
53512;BMP280;39392;52.832;13.816;2023-11-21T02:02:25;100800.34;;;20.92
53512;BMP280;39392;52.832;13.816;2023-11-21T02:04:51;100800.81;;;20.96
53512;BMP280;39392;52.832;13.816;2023-11-21T02:07:18;100795.16;;;20.97
53512;BMP280;39392;52.832;13.816;2023-11-21T02:09:45;100806.75;;;20.99
53512;BMP280;39392;52.832;13.816;2023-11-21T02:12:12;100805.34;;;21.03
53512;BMP280;39392;52.832;13.816;2023-11-21T02:14:39;100799.22;;;21.01
53512;BMP280;39392;52.832;13.816;2023-11-21T02:17:05;100802.63;;;21.03
53512;BMP280;39392;52.832;13.816;2023-11-21T02:19:32;100805.97;;;21.05
53512;BMP280;39392;52.832;13.816;2023-11-21T02:22:00;100804.28;;;21.04
53512;BMP280;39392;52.832;13.816;2023-11-21T02:24:29;100807.66;;;21.06
53512;BMP280;39392;52.832;13.816;2023-11-21T02:26:56;100799.31;;;21.08
53512;BMP280;39392;52.832;13.816;2023-11-21T02:29:23;100803.72;;;21.09
53512;BMP280;39392;52.832;13.816;2023-11-21T02:31:54;100810.22;;;21.08
53512;BMP280;39392;52.832;13.816;2023-11-21T02:34:22;100817.56;;;21.07
53512;BMP280;39392;52.832;13.816;2023-11-21T02:36:49;100823.84;;;21.08
53512;BMP280;39392;52.832;13.816;2023-11-21T02:39:18;100826.38;;;21.09
53512;BMP280;39392;52.832;13.816;2023-11-21T02:41:48;100819.72;;;21.12
53512;BMP280;39392;52.832;13.816;2023-11-21T02:44:15;100822.44;;;21.12
53512;BMP280;39392;52.832;13.816;2023-11-21T02:46:41;100828.72;;;21.12
53512;BMP280;39392;52.832;13.816;2023-11-21T02:49:08;100825.16;;;21.12
53512;BMP280;39392;52.832;13.816;2023-11-21T02:51:36;100823.00;;;21.07
53512;BMP280;39392;52.832;13.816;2023-11-21T02:54:05;100820.44;;;21.06
53512;BMP280;39392;52.832;13.816;2023-11-21T02:56:34;100824.88;;;21.07
53512;BMP280;39392;52.832;13.816;2023-11-21T02:59:00;100834.75;;;21.08
53512;BMP280;39392;52.832;13.816;2023-11-21T03:01:27;100838.50;;;21.07
53512;BMP280;39392;52.832;13.816;2023-11-21T03:03:54;100835.59;;;21.08
53512;BMP280;39392;52.832;13.816;2023-11-21T03:06:22;100836.22;;;21.10
53512;BMP280;39392;52.832;13.816;2023-11-21T03:08:49;100838.94;;;21.10
53512;BMP280;39392;52.832;13.816;2023-11-21T03:11:17;100832.66;;;21.10
53512;BMP280;39392;52.832;13.816;2023-11-21T03:13:43;100853.63;;;21.09
53512;BMP280;39392;52.832;13.816;2023-11-21T03:16:10;100845.28;;;21.11
53512;BMP280;39392;52.832;13.816;2023-11-21T03:18:37;100844.25;;;21.12
53512;BMP280;39392;52.832;13.816;2023-11-21T03:21:04;100839.63;;;21.12
53512;BMP280;39392;52.832;13.816;2023-11-21T03:23:31;100853.06;;;21.14
53512;BMP280;39392;52.832;13.816;2023-11-21T03:25:58;100848.09;;;21.18
53512;BMP280;39392;52.832;13.816;2023-11-21T03:28:26;100849.28;;;21.15
53512;BMP280;39392;52.832;13.816;2023-11-21T03:30:53;100858.91;;;21.11
53512;BMP280;39392;52.832;13.816;2023-11-21T03:33:20;100866.22;;;21.10
53512;BMP280;39392;52.832;13.816;2023-11-21T03:35:47;100856.19;;;21.11
53512;BMP280;39392;52.832;13.816;2023-11-21T03:38:13;100857.19;;;21.10
53512;BMP280;39392;52.832;13.816;2023-11-21T03:40:40;100862.63;;;21.10
53512;BMP280;39392;52.832;13.816;2023-11-21T03:43:06;100859.06;;;21.09
53512;BMP280;39392;52.832;13.816;2023-11-21T03:45:33;100865.56;;;21.08
53512;BMP280;39392;52.832;13.816;2023-11-21T03:48:00;100867.25;;;21.09
53512;BMP280;39392;52.832;13.816;2023-11-21T03:50:28;100874.22;;;21.12
53512;BMP280;39392;52.832;13.816;2023-11-21T03:52:55;100876.09;;;21.11
53512;BMP280;39392;52.832;13.816;2023-11-21T03:55:22;100876.09;;;21.11
53512;BMP280;39392;52.832;13.816;2023-11-21T03:57:50;100882.19;;;21.13
53512;BMP280;39392;52.832;13.816;2023-11-21T04:00:17;100877.59;;;21.14
53512;BMP280;39392;52.832;13.816;2023-11-21T04:02:46;100880.31;;;21.14
53512;BMP280;39392;52.832;13.816;2023-11-21T04:05:14;100876.53;;;21.15
53512;BMP280;39392;52.832;13.816;2023-11-21T04:07:41;100882.88;;;21.16
53512;BMP280;39392;52.832;13.816;2023-11-21T04:10:07;100881.00;;;21.16
53512;BMP280;39392;52.832;13.816;2023-11-21T04:12:36;100888.13;;;21.17
53512;BMP280;39392;52.832;13.816;2023-11-21T04:15:03;100890.84;;;21.17
53512;BMP280;39392;52.832;13.816;2023-11-21T04:17:29;100895.25;;;21.18
53512;BMP280;39392;52.832;13.816;2023-11-21T04:19:57;100897.81;;;21.20
53512;BMP280;39392;52.832;13.816;2023-11-21T04:22:23;100910.22;;;21.22
53512;BMP280;39392;52.832;13.816;2023-11-21T04:24:50;100908.53;;;21.21
53512;BMP280;39392;52.832;13.816;2023-11-21T04:27:17;100911.25;;;21.21
53512;BMP280;39392;52.832;13.816;2023-11-21T04:29:46;100899.31;;;21.22
53512;BMP280;39392;52.832;13.816;2023-11-21T04:32:12;100905.78;;;21.21
53512;BMP280;39392;52.832;13.816;2023-11-21T04:34:39;100917.91;;;21.19
53512;BMP280;39392;52.832;13.816;2023-11-21T04:37:05;100926.75;;;21.21
53512;BMP280;39392;52.832;13.816;2023-11-21T04:39:32;100931.16;;;21.22
53512;BMP280;39392;52.832;13.816;2023-11-21T04:41:59;100932.38;;;21.19
53512;BMP280;39392;52.832;13.816;2023-11-21T04:44:25;100928.66;;;21.20
53512;BMP280;39392;52.832;13.816;2023-11-21T04:46:52;100940.56;;;21.19
53512;BMP280;39392;52.832;13.816;2023-11-21T04:49:19;100940.38;;;21.21
53512;BMP280;39392;52.832;13.816;2023-11-21T04:51:45;100957.59;;;21.21
53512;BMP280;39392;52.832;13.816;2023-11-21T04:54:12;100938.50;;;21.21
53512;BMP280;39392;52.832;13.816;2023-11-21T04:56:38;100949.22;;;21.23
53512;BMP280;39392;52.832;13.816;2023-11-21T04:59:05;100956.19;;;21.25
53512;BMP280;39392;52.832;13.816;2023-11-21T05:01:31;100953.47;;;21.25
53512;BMP280;39392;52.832;13.816;2023-11-21T05:03:58;100965.19;;;21.26
53512;BMP280;39392;52.832;13.816;2023-11-21T05:06:25;100958.91;;;21.25
53512;BMP280;39392;52.832;13.816;2023-11-21T05:08:52;100975.25;;;21.25
53512;BMP280;39392;52.832;13.816;2023-11-21T05:11:25;100970.47;;;21.27
53512;BMP280;39392;52.832;13.816;2023-11-21T05:13:51;100968.59;;;21.28
53512;BMP280;39392;52.832;13.816;2023-11-21T05:16:19;100971.13;;;21.29
53512;BMP280;39392;52.832;13.816;2023-11-21T05:18:46;100976.25;;;21.32
53512;BMP280;39392;52.832;13.816;2023-11-21T05:21:12;100977.09;;;21.33
53512;BMP280;39392;52.832;13.816;2023-11-21T05:23:39;100983.19;;;21.35
53512;BMP280;39392;52.832;13.816;2023-11-21T05:26:06;100988.00;;;21.33
53512;BMP280;39392;52.832;13.816;2023-11-21T05:28:33;100997.03;;;21.33
53512;BMP280;39392;52.832;13.816;2023-11-21T05:31:00;100993.59;;;21.31
53512;BMP280;39392;52.832;13.816;2023-11-21T05:33:41;101001.13;;;21.29
53512;BMP280;39392;52.832;13.816;2023-11-21T05:36:08;100997.22;;;21.32
53512;BMP280;39392;52.832;13.816;2023-11-21T05:38:36;101000.09;;;21.30
53512;BMP280;39392;52.832;13.816;2023-11-21T05:41:03;101004.50;;;21.31
53512;BMP280;39392;52.832;13.816;2023-11-21T05:43:30;101010.66;;;21.33
53512;BMP280;39392;52.832;13.816;2023-11-21T05:45:58;101019.69;;;21.34
53512;BMP280;39392;52.832;13.816;2023-11-21T05:48:25;101021.75;;;21.32
53512;BMP280;39392;52.832;13.816;2023-11-21T05:50:52;101012.53;;;21.33
53512;BMP280;39392;52.832;13.816;2023-11-21T05:53:18;101014.41;;;21.32
53512;BMP280;39392;52.832;13.816;2023-11-21T05:55:45;101020.72;;;21.33
53512;BMP280;39392;52.832;13.816;2023-11-21T05:58:12;101025.31;;;21.32
53512;BMP280;39392;52.832;13.816;2023-11-21T06:00:40;101024.47;;;21.32
53512;BMP280;39392;52.832;13.816;2023-11-21T06:03:07;101029.94;;;21.32
53512;BMP280;39392;52.832;13.816;2023-11-21T06:05:34;101034.34;;;21.33
53512;BMP280;39392;52.832;13.816;2023-11-21T06:08:01;101031.63;;;21.33
53512;BMP280;39392;52.832;13.816;2023-11-21T06:10:28;101038.75;;;21.34
53512;BMP280;39392;52.832;13.816;2023-11-21T06:12:55;101044.88;;;21.36
53512;BMP280;39392;52.832;13.816;2023-11-21T06:15:21;101043.84;;;21.37
53512;BMP280;39392;52.832;13.816;2023-11-21T06:17:50;101043.66;;;21.38
53512;BMP280;39392;52.832;13.816;2023-11-21T06:20:19;101063.78;;;21.37
53512;BMP280;39392;52.832;13.816;2023-11-21T06:22:47;101065.84;;;21.35
53512;BMP280;39392;52.832;13.816;2023-11-21T06:25:14;101054.94;;;21.35
53512;BMP280;39392;52.832;13.816;2023-11-21T06:27:42;101066.88;;;21.34
53512;BMP280;39392;52.832;13.816;2023-11-21T06:30:09;101070.44;;;21.35
53512;BMP280;39392;52.832;13.816;2023-11-21T06:32:36;101077.78;;;21.34
53512;BMP280;39392;52.832;13.816;2023-11-21T06:35:03;101084.28;;;21.33
53512;BMP280;39392;52.832;13.816;2023-11-21T06:37:31;101094.47;;;21.31
53512;BMP280;39392;52.832;13.816;2023-11-21T06:39:58;101095.38;;;21.32
53512;BMP280;39392;52.832;13.816;2023-11-21T06:42:26;101097.91;;;21.33
53512;BMP280;39392;52.832;13.816;2023-11-21T06:44:53;101103.16;;;21.35
53512;BMP280;39392;52.832;13.816;2023-11-21T06:47:25;101111.34;;;21.35
53512;BMP280;39392;52.832;13.816;2023-11-21T06:49:52;101103.16;;;21.35
53512;BMP280;39392;52.832;13.816;2023-11-21T06:52:19;101100.44;;;21.35
53512;BMP280;39392;52.832;13.816;2023-11-21T06:54:47;101118.31;;;21.37
53512;BMP280;39392;52.832;13.816;2023-11-21T06:57:13;101117.09;;;21.40
53512;BMP280;39392;52.832;13.816;2023-11-21T06:59:40;101113.50;;;21.39
53512;BMP280;39392;52.832;13.816;2023-11-21T07:02:07;101113.50;;;21.39
53512;BMP280;39392;52.832;13.816;2023-11-21T07:04:34;101118.13;;;21.39
53512;BMP280;39392;52.832;13.816;2023-11-21T07:07:00;101120.84;;;21.39
53512;BMP280;39392;52.832;13.816;2023-11-21T07:09:27;101124.63;;;21.38
53512;BMP280;39392;52.832;13.816;2023-11-21T07:11:54;101126.66;;;21.36
53512;BMP280;39392;52.832;13.816;2023-11-21T07:14:21;101136.56;;;21.37
53512;BMP280;39392;52.832;13.816;2023-11-21T07:16:48;101134.69;;;21.37
53512;BMP280;39392;52.832;13.816;2023-11-21T07:19:14;101136.38;;;21.38
53512;BMP280;39392;52.832;13.816;2023-11-21T07:21:41;101129.88;;;21.39
53512;BMP280;39392;52.832;13.816;2023-11-21T07:24:08;101128.88;;;21.41
53512;BMP280;39392;52.832;13.816;2023-11-21T07:26:35;101123.41;;;21.41
53512;BMP280;39392;52.832;13.816;2023-11-21T07:29:01;101128.88;;;21.41
53512;BMP280;39392;52.832;13.816;2023-11-21T07:31:29;101135.16;;;21.41
53512;BMP280;39392;52.832;13.816;2023-11-21T07:33:56;101142.50;;;21.41
53512;BMP280;39392;52.832;13.816;2023-11-21T07:36:26;101152.38;;;21.42
53512;BMP280;39392;52.832;13.816;2023-11-21T07:38:52;101151.31;;;21.43
53512;BMP280;39392;52.832;13.816;2023-11-21T07:41:19;101156.22;;;21.47
53512;BMP280;39392;52.832;13.816;2023-11-21T07:43:56;101155.19;;;21.48
53512;BMP280;39392;52.832;13.816;2023-11-21T07:46:23;101161.69;;;21.47
53512;BMP280;39392;52.832;13.816;2023-11-21T07:48:50;101157.28;;;21.46
53512;BMP280;39392;52.832;13.816;2023-11-21T07:51:18;101162.72;;;21.46
53512;BMP280;39392;52.832;13.816;2023-11-21T07:53:45;101161.41;;;21.42
53512;BMP280;39392;52.832;13.816;2023-11-21T07:56:12;101163.44;;;21.40
53512;BMP280;39392;52.832;13.816;2023-11-21T07:58:39;101171.81;;;21.38
53512;BMP280;39392;52.832;13.816;2023-11-21T08:01:06;101172.00;;;21.37
53512;BMP280;39392;52.832;13.816;2023-11-21T08:03:33;101181.38;;;21.34
53512;BMP280;39392;52.832;13.816;2023-11-21T08:06:00;101183.47;;;21.32
53512;BMP280;39392;52.832;13.816;2023-11-21T08:08:26;101183.59;;;21.31
53512;BMP280;39392;52.832;13.816;2023-11-21T08:10:53;101190.91;;;21.30
53512;BMP280;39392;52.832;13.816;2023-11-21T08:13:27;101197.22;;;21.31
53512;BMP280;39392;52.832;13.816;2023-11-21T08:15:55;101190.91;;;21.30
53512;BMP280;39392;52.832;13.816;2023-11-21T08:18:23;101193.66;;;21.30
53512;BMP280;39392;52.832;13.816;2023-11-21T08:20:49;101191.97;;;21.29
53512;BMP280;39392;52.832;13.816;2023-11-21T08:23:16;101198.97;;;21.32
53512;BMP280;39392;52.832;13.816;2023-11-21T08:25:43;101196.25;;;21.32
53512;BMP280;39392;52.832;13.816;2023-11-21T08:28:10;101201.16;;;21.36
53512;BMP280;39392;52.832;13.816;2023-11-21T08:30:36;101200.78;;;21.39
53512;BMP280;39392;52.832;13.816;2023-11-21T08:33:03;101195.81;;;21.43
53512;BMP280;39392;52.832;13.816;2023-11-21T08:35:30;101206.34;;;21.46
53512;BMP280;39392;52.832;13.816;2023-11-21T08:37:57;101193.28;;;21.42
53512;BMP280;39392;52.832;13.816;2023-11-21T08:40:24;101202.84;;;21.37
53512;BMP280;39392;52.832;13.816;2023-11-21T08:42:51;101211.19;;;21.36
53512;BMP280;39392;52.832;13.816;2023-11-21T08:45:19;101211.66;;;21.39
53512;BMP280;39392;52.832;13.816;2023-11-21T08:47:45;101226.84;;;21.42
53512;BMP280;39392;52.832;13.816;2023-11-21T08:50:12;101228.41;;;21.36
53512;BMP280;39392;52.832;13.816;2023-11-21T08:52:39;101238.28;;;21.37
53512;BMP280;39392;52.832;13.816;2023-11-21T08:55:07;101241.56;;;21.33
53512;BMP280;39392;52.832;13.816;2023-11-21T08:57:34;101235.25;;;21.32
53512;BMP280;39392;52.832;13.816;2023-11-21T09:00:04;101236.75;;;21.35
53512;BMP280;39392;52.832;13.816;2023-11-21T09:02:34;101245.78;;;21.35
53512;BMP280;39392;52.832;13.816;2023-11-21T09:05:00;101242.41;;;21.33
53512;BMP280;39392;52.832;13.816;2023-11-21T09:07:29;101256.22;;;21.32
53512;BMP280;39392;52.832;13.816;2023-11-21T09:09:56;101248.19;;;21.30
53512;BMP280;39392;52.832;13.816;2023-11-21T09:12:23;101259.91;;;21.31
53512;BMP280;39392;52.832;13.816;2023-11-21T09:14:51;101261.84;;;21.22
53512;BMP280;39392;52.832;13.816;2023-11-21T09:17:17;101269.16;;;20.91
53512;BMP280;39392;52.832;13.816;2023-11-21T09:19:45;101270.03;;;20.83
53512;BMP280;39392;52.832;13.816;2023-11-21T09:22:16;101280.25;;;20.81
53512;BMP280;39392;52.832;13.816;2023-11-21T09:24:43;101281.47;;;20.78
53512;BMP280;39392;52.832;13.816;2023-11-21T09:27:10;101275.50;;;20.75
53512;BMP280;39392;52.832;13.816;2023-11-21T09:29:37;101282.31;;;20.71
53512;BMP280;39392;52.832;13.816;2023-11-21T09:32:07;101277.75;;;20.63
53512;BMP280;39392;52.832;13.816;2023-11-21T09:34:34;101286.44;;;20.58
53512;BMP280;39392;52.832;13.816;2023-11-21T09:37:05;101281.66;;;20.52
53512;BMP280;39392;52.832;13.816;2023-11-21T09:39:33;101288.47;;;20.48
53512;BMP280;39392;52.832;13.816;2023-11-21T09:42:08;101289.84;;;20.44
53512;BMP280;39392;52.832;13.816;2023-11-21T09:45:21;101298.53;;;20.23
53512;BMP280;39392;52.832;13.816;2023-11-21T09:47:27;101299.28;;;19.58
53512;BMP280;39392;52.832;13.816;2023-11-21T09:49:54;101314.03;;;19.05
53512;BMP280;39392;52.832;13.816;2023-11-21T09:52:25;101310.69;;;19.11
53512;BMP280;39392;52.832;13.816;2023-11-21T09:54:52;101316.38;;;19.34
53512;BMP280;39392;52.832;13.816;2023-11-21T09:57:20;101320.53;;;19.55
53512;BMP280;39392;52.832;13.816;2023-11-21T09:59:48;101323.31;;;19.71
53512;BMP280;39392;52.832;13.816;2023-11-21T10:02:17;101313.81;;;19.83
53512;BMP280;39392;52.832;13.816;2023-11-21T10:04:46;101320.97;;;19.93
53512;BMP280;39392;52.832;13.816;2023-11-21T10:07:13;101318.44;;;19.99
53512;BMP280;39392;52.832;13.816;2023-11-21T10:09:42;101321.31;;;20.06
53512;BMP280;39392;52.832;13.816;2023-11-21T10:12:09;101328.97;;;20.10
53512;BMP280;39392;52.832;13.816;2023-11-21T10:14:37;101328.47;;;20.15
53512;BMP280;39392;52.832;13.816;2023-11-21T10:17:08;101332.38;;;20.21
53512;BMP280;39392;52.832;13.816;2023-11-21T10:19:36;101326.75;;;20.22
53512;BMP280;39392;52.832;13.816;2023-11-21T10:22:03;101331.88;;;20.25
53512;BMP280;39392;52.832;13.816;2023-11-21T10:24:30;101335.25;;;20.27
53512;BMP280;39392;52.832;13.816;2023-11-21T10:27:06;101332.22;;;20.30
53512;BMP280;39392;52.832;13.816;2023-11-21T10:29:33;101335.63;;;20.32
53512;BMP280;39392;52.832;13.816;2023-11-21T10:32:02;101345.31;;;20.35
53512;BMP280;39392;52.832;13.816;2023-11-21T10:34:29;101342.25;;;20.38
53512;BMP280;39392;52.832;13.816;2023-11-21T10:36:56;101342.75;;;20.42
53512;BMP280;39392;52.832;13.816;2023-11-21T10:39:24;101339.72;;;20.45
53512;BMP280;39392;52.832;13.816;2023-11-21T10:41:54;101340.38;;;20.47
53512;BMP280;39392;52.832;13.816;2023-11-21T10:44:21;101347.38;;;20.49
53512;BMP280;39392;52.832;13.816;2023-11-21T10:46:50;101351.63;;;20.52
53512;BMP280;39392;52.832;13.816;2023-11-21T10:49:18;101356.06;;;20.53
53512;BMP280;39392;52.832;13.816;2023-11-21T10:51:45;101358.44;;;20.56
53512;BMP280;39392;52.832;13.816;2023-11-21T10:54:11;101365.41;;;20.58
53512;BMP280;39392;52.832;13.816;2023-11-21T10:56:39;101361.50;;;20.61
53512;BMP280;39392;52.832;13.816;2023-11-21T10:59:09;101363.22;;;20.62
53512;BMP280;39392;52.832;13.816;2023-11-21T11:01:37;101369.31;;;20.64
53512;BMP280;39392;52.832;13.816;2023-11-21T11:04:04;101371.88;;;20.66
53512;BMP280;39392;52.832;13.816;2023-11-21T11:06:32;101367.09;;;20.68
53512;BMP280;39392;52.832;13.816;2023-11-21T11:08:59;101367.94;;;20.68
53512;BMP280;39392;52.832;13.816;2023-11-21T11:11:29;101373.25;;;20.70
53512;BMP280;39392;52.832;13.816;2023-11-21T11:13:56;101374.75;;;20.72
53512;BMP280;39392;52.832;13.816;2023-11-21T11:16:25;101381.03;;;20.73
53512;BMP280;39392;52.832;13.816;2023-11-21T11:18:53;101379.03;;;20.75
53512;BMP280;39392;52.832;13.816;2023-11-21T11:26:54;101391.44;;;20.77
53512;BMP280;39392;52.832;13.816;2023-11-21T11:29:29;101396.88;;;20.77
53512;BMP280;39392;52.832;13.816;2023-11-21T11:32:09;101395.88;;;20.78
53512;BMP280;39392;52.832;13.816;2023-11-21T11:34:53;101398.41;;;20.80
53512;BMP280;39392;52.832;13.816;2023-11-21T11:37:23;101400.09;;;20.81
53512;BMP280;39392;52.832;13.816;2023-11-21T11:39:50;101414.56;;;20.81
53512;BMP280;39392;52.832;13.816;2023-11-21T11:42:17;101416.31;;;20.82
53512;BMP280;39392;52.832;13.816;2023-11-21T11:47:19;101423.44;;;20.83
53512;BMP280;39392;52.832;13.816;2023-11-21T11:52:44;101432.47;;;20.84
53512;BMP280;39392;52.832;13.816;2023-11-21T11:55:11;101438.75;;;20.84
53512;BMP280;39392;52.832;13.816;2023-11-21T11:57:41;101440.47;;;20.85
53512;BMP280;39392;52.832;13.816;2023-11-21T12:00:08;101457.69;;;20.86
53512;BMP280;39392;52.832;13.816;2023-11-21T12:02:38;101460.22;;;20.87
53512;BMP280;39392;52.832;13.816;2023-11-21T12:05:09;101458.34;;;20.88
53512;BMP280;39392;52.832;13.816;2023-11-21T12:07:41;101467.38;;;20.88
53512;BMP280;39392;52.832;13.816;2023-11-21T12:10:08;101470.78;;;20.91
53512;BMP280;39392;52.832;13.816;2023-11-21T12:12:37;101467.03;;;20.92
53512;BMP280;39392;52.832;13.816;2023-11-21T12:15:07;101468.91;;;20.91
53512;BMP280;39392;52.832;13.816;2023-11-21T12:17:34;101477.94;;;20.92
53512;BMP280;39392;52.832;13.816;2023-11-21T12:20:02;101481.31;;;20.94
53512;BMP280;39392;52.832;13.816;2023-11-21T12:22:30;101482.16;;;20.94
53512;BMP280;39392;52.832;13.816;2023-11-21T12:24:57;101487.63;;;20.94
53512;BMP280;39392;52.832;13.816;2023-11-21T12:27:24;101484.91;;;20.94
53512;BMP280;39392;52.832;13.816;2023-11-21T12:29:51;101493.94;;;20.95
53512;BMP280;39392;52.832;13.816;2023-11-21T12:32:18;101498.38;;;20.96
53512;BMP280;39392;52.832;13.816;2023-11-21T12:34:47;101502.78;;;20.97
53512;BMP280;39392;52.832;13.816;2023-11-21T12:37:14;101501.75;;;20.98
53512;BMP280;39392;52.832;13.816;2023-11-21T12:39:40;101501.75;;;20.98
53512;BMP280;39392;52.832;13.816;2023-11-21T12:42:07;101512.66;;;20.98
53512;BMP280;39392;52.832;13.816;2023-11-21T12:44:34;101516.09;;;21.00
53512;BMP280;39392;52.832;13.816;2023-11-21T12:47:00;101509.94;;;20.98
53512;BMP280;39392;52.832;13.816;2023-11-21T12:49:27;101514.22;;;21.00
53512;BMP280;39392;52.832;13.816;2023-11-21T12:51:54;101512.50;;;20.99
53512;BMP280;39392;52.832;13.816;2023-11-21T12:54:21;101516.22;;;20.98
53512;BMP280;39392;52.832;13.816;2023-11-21T12:56:47;101523.41;;;20.99
53512;BMP280;39392;52.832;13.816;2023-11-21T12:59:15;101528.84;;;20.99
53512;BMP280;39392;52.832;13.816;2023-11-21T13:01:44;101531.41;;;21.01
53512;BMP280;39392;52.832;13.816;2023-11-21T13:04:12;101543.16;;;21.01
53512;BMP280;39392;52.832;13.816;2023-11-21T13:06:39;101545.03;;;21.01
53512;BMP280;39392;52.832;13.816;2023-11-21T13:09:07;101549.44;;;21.02
53512;BMP280;39392;52.832;13.816;2023-11-21T13:11:37;101546.72;;;21.02
53512;BMP280;39392;52.832;13.816;2023-11-21T13:14:04;101555.75;;;21.02
53512;BMP280;39392;52.832;13.816;2023-11-21T13:16:30;101554.91;;;21.02
53512;BMP280;39392;52.832;13.816;2023-11-21T13:18:58;101550.31;;;21.02
53512;BMP280;39392;52.832;13.816;2023-11-21T13:21:24;101565.66;;;21.03
53512;BMP280;39392;52.832;13.816;2023-11-21T13:23:51;101566.66;;;21.02
53512;BMP280;39392;52.832;13.816;2023-11-21T13:26:19;101571.09;;;21.03
53512;BMP280;39392;52.832;13.816;2023-11-21T13:28:48;101570.25;;;21.03
53512;BMP280;39392;52.832;13.816;2023-11-21T13:31:14;101579.94;;;21.05
53512;BMP280;39392;52.832;13.816;2023-11-21T13:33:49;101586.25;;;21.06
53512;BMP280;39392;52.832;13.816;2023-11-21T13:36:23;101589.81;;;21.06
53512;BMP280;39392;52.832;13.816;2023-11-21T13:38:50;101588.97;;;21.06
53512;BMP280;39392;52.832;13.816;2023-11-21T13:41:19;101596.16;;;21.07
53512;BMP280;39392;52.832;13.816;2023-11-21T13:43:46;101584.38;;;21.06
53512;BMP280;39392;52.832;13.816;2023-11-21T13:46:17;101594.44;;;21.06
53512;BMP280;39392;52.832;13.816;2023-11-21T13:48:49;101590.69;;;21.07
53512;BMP280;39392;52.832;13.816;2023-11-21T13:51:23;101599.72;;;21.07
53512;BMP280;39392;52.832;13.816;2023-11-21T13:53:58;101601.59;;;21.07
53512;BMP280;39392;52.832;13.816;2023-11-21T13:56:25;101606.16;;;21.06
53512;BMP280;39392;52.832;13.816;2023-11-21T13:58:55;101611.47;;;21.08